Decoded Metar for CYNE (NORWAY HOUSE ARP in MB, CANADA) (IATA:YNE) | Meteo·Mobile Aviation Weather
aviador You're here:

CYNE Decoded Metar

NORWAY HOUSE ARP in MB, CANADA
Report Time2018-12-11 01:00:00
UTC Time2018-12-11 01:58:13
Flight Rules vfr VFR
Wind120° at 03 kt
W.Decomp.*RWY 06: 1.7 kt HW 2.5 kt RCW
W.Rank120° ranks 34
Current wind is below 120° avg. (5.4)
Visibility9999 m
Phenomena:N/A
Clouds:N/A
Expected CloudBase > 400 ft AGL from Temp-Dew spread
CeilingNone
Temp-17°C (ISA -31)
Dew Point-18°C (92% RH)
AAT-21.6°C
QNH1015 hPa
Density Alt-3,189 ft
Elevation732 ft
Report Wrong Elevation
Raw Report
CYNE 110100Z AUTO 12003KT 9SM CLR M17/M18 A2998 RMK SLP177=

Extra information for CYNE:More info

Metar Taf Metar & Taf Last 4 Metars F.Rules Stats Wind Profile Meteogram Temp Stats Airport Information Weather charts Add Link Nearby VenuesMetar ALERT Operation Metar Decoded Social comments